Time;durP1;ratioP1;P1;durP2;ratioP2;P2;SDS_P1;SDS_P2;PMS_P1;PMS_P2;Temp;Humidity;BMP_temperature;BMP_pressure;BME280_temperature;BME280_humidity;BME280_pressure;Samples;Min_cycle;Max_cycle;Signal;HPM_P1;HPM_P2
2023/09/12 00:01:08;;;;;;;0.30;0.15;;;;;;;18.96;94.36;100530.06;4990044;28;20570;-71
2023/09/12 00:03:34;;;;;;;0.20;0.00;;;;;;;18.95;94.01;100530.25;4990877;28;20046;-71
2023/09/12 00:06:01;;;;;;;0.40;0.28;;;;;;;18.95;93.38;100528.44;4987238;28;20049;-71
2023/09/12 00:08:26;;;;;;;0.28;0.00;;;;;;;18.94;93.39;100532.09;4990827;28;20030;-70
2023/09/12 00:11:09;;;;;;;0.10;0.00;;;;;;;18.88;93.61;100525.81;4989785;28;20507;-71
2023/09/12 00:13:35;;;;;;;0.00;0.00;;;;;;;18.85;93.91;100526.19;4990615;28;20380;-71
2023/09/12 00:16:00;;;;;;;0.20;0.00;;;;;;;18.88;93.07;100528.44;4987999;28;20030;-71
2023/09/12 00:18:26;;;;;;;0.10;0.03;;;;;;;18.88;93.20;100528.44;4987430;28;20019;-70
2023/09/12 00:20:52;;;;;;;0.10;0.00;;;;;;;18.86;93.66;100530.47;4986835;28;21405;-70
2023/09/12 00:23:20;;;;;;;0.05;0.00;;;;;;;18.80;93.58;100525.97;4986222;28;20031;-70
2023/09/12 00:25:45;;;;;;;0.17;0.03;;;;;;;18.77;94.88;100520.25;4988403;28;20030;-71
2023/09/12 00:28:10;;;;;;;0.00;0.00;;;;;;;18.70;94.91;100522.06;4991578;28;20030;-71
2023/09/12 00:30:36;;;;;;;0.15;0.00;;;;;;;18.66;95.94;100526.91;4985908;28;20049;-70
2023/09/12 00:33:01;;;;;;;0.00;0.00;;;;;;;18.63;96.39;100529.94;4991413;28;20503;-70
2023/09/12 00:35:27;;;;;;;0.20;0.13;;;;;;;18.61;96.87;100521.41;4985413;28;20034;-71
2023/09/12 00:37:52;;;;;;;0.00;0.00;;;;;;;18.58;96.40;100519.13;4987770;28;20058;-70
2023/09/12 00:40:18;;;;;;;0.15;0.03;;;;;;;18.58;95.97;100516.47;4988157;28;20045;-70
2023/09/12 00:42:43;;;;;;;0.00;0.00;;;;;;;18.61;95.63;100516.13;4990559;28;20113;-70
2023/09/12 00:45:09;;;;;;;0.80;0.20;;;;;;;18.61;95.44;100513.47;4989471;28;20117;-70
2023/09/12 00:47:36;;;;;;;0.00;0.00;;;;;;;18.60;95.54;100516.28;4985099;28;20038;-70
2023/09/12 00:50:04;;;;;;;0.65;0.10;;;;;;;18.58;94.80;100505.94;4986872;28;20042;-70
2023/09/12 00:52:33;;;;;;;0.30;0.20;;;;;;;18.56;94.32;100502.66;4988829;28;20403;-70
2023/09/12 00:54:58;;;;;;;0.45;0.10;;;;;;;18.58;93.22;100500.66;4985898;28;20034;-71
2023/09/12 00:57:25;;;;;;;0.10;0.03;;;;;;;18.60;92.94;100503.09;4990070;28;20030;-70
2023/09/12 00:59:51;;;;;;;0.08;0.00;;;;;;;18.60;93.63;100503.09;4989410;28;20042;-71
2023/09/12 01:02:18;;;;;;;0.43;0.10;;;;;;;18.57;93.73;100501.66;4989373;28;20076;-70
2023/09/12 01:04:44;;;;;;;0.00;0.00;;;;;;;18.59;93.44;100497.00;4987262;28;20048;-70
2023/09/12 01:07:10;;;;;;;0.20;0.20;;;;;;;18.59;93.34;100502.28;4988548;28;20172;-70
2023/09/12 01:09:35;;;;;;;0.00;0.00;;;;;;;18.57;93.32;100499.03;4989464;28;20168;-70
2023/09/12 01:12:04;;;;;;;0.63;0.00;;;;;;;18.56;93.16;100500.84;4987376;28;20365;-70
2023/09/12 01:14:30;;;;;;;0.20;0.17;;;;;;;18.56;93.50;100497.38;4986686;28;20105;-70
2023/09/12 01:16:57;;;;;;;0.10;0.00;;;;;;;18.53;94.05;100498.59;4990213;28;20030;-70
2023/09/12 01:19:23;;;;;;;1.05;0.08;;;;;;;18.49;94.37;100497.34;4986903;28;20044;-70
2023/09/12 01:22:14;;;;;;;0.70;0.05;;;;;;;18.43;94.99;100494.72;4986851;28;20081;-70
2023/09/12 01:24:52;;;;;;;0.10;0.10;;;;;;;18.35;96.05;100493.03;4991373;28;20511;-70
2023/09/12 01:27:25;;;;;;;0.10;0.05;;;;;;;18.32;96.10;100489.97;4987408;28;20047;-71
2023/09/12 01:29:56;;;;;;;0.25;0.10;;;;;;;18.30;95.91;100489.34;4989479;28;20042;-71
2023/09/12 01:32:21;;;;;;;0.10;0.00;;;;;;;18.28;95.23;100483.44;4989473;28;20042;-70
2023/09/12 01:34:47;;;;;;;0.10;0.00;;;;;;;18.28;94.76;100488.72;4987244;28;20396;-71
2023/09/12 01:37:12;;;;;;;0.22;0.10;;;;;;;18.32;94.21;100485.50;4984645;28;20495;-71
2023/09/12 01:39:38;;;;;;;0.00;0.00;;;;;;;18.33;93.98;100484.50;4988584;28;20027;-70
2023/09/12 01:42:05;;;;;;;0.08;0.00;;;;;;;18.33;93.69;100486.31;4986500;28;20026;-71
2023/09/12 01:44:32;;;;;;;0.40;0.08;;;;;;;18.34;93.48;100482.69;4987727;28;20567;-71
2023/09/12 01:47:02;;;;;;;0.13;0.10;;;;;;;18.39;93.22;100489.00;4989460;28;20066;-71
2023/09/12 01:49:29;;;;;;;0.25;0.05;;;;;;;18.41;93.28;100488.81;4985934;28;20034;-70
2023/09/12 01:51:55;;;;;;;0.03;0.00;;;;;;;18.44;93.83;100493.66;4986427;28;20034;-70
2023/09/12 01:54:22;;;;;;;0.10;0.00;;;;;;;18.37;94.88;100498.13;4987506;28;20065;-70
2023/09/12 01:56:48;;;;;;;0.85;0.38;;;;;;;18.25;96.58;100495.19;4985643;28;20032;-69
2023/09/12 01:59:14;;;;;;;0.40;0.10;;;;;;;18.17;98.02;100492.72;4988103;28;20030;-70
2023/09/12 02:01:41;;;;;;;0.20;0.20;;;;;;;18.12;98.86;100488.00;4985913;28;20026;-70
2023/09/12 02:04:08;;;;;;;0.45;0.10;;;;;;;18.09;98.74;100482.31;4982145;28;20066;-69
2023/09/12 02:06:37;;;;;;;0.90;0.10;;;;;;;18.08;98.77;100485.94;4979942;28;20078;-69
2023/09/12 02:09:02;;;;;;;0.68;0.10;;;;;;;18.09;97.76;100485.75;4985961;28;20460;-71
2023/09/12 02:11:28;;;;;;;1.63;0.10;;;;;;;18.12;97.29;100472.19;4974717;28;20151;-70
2023/09/12 02:13:53;;;;;;;0.10;0.03;;;;;;;18.14;97.13;100487.81;4983638;28;20030;-70
2023/09/12 02:16:19;;;;;;;0.00;0.00;;;;;;;18.12;97.03;100480.09;4985623;28;20041;-71
2023/09/12 02:18:44;;;;;;;0.00;0.00;;;;;;;18.10;96.81;100483.94;4988308;28;20089;-70
2023/09/12 02:21:10;;;;;;;1.48;0.00;;;;;;;18.06;96.68;100485.34;4987723;28;20399;-70
2023/09/12 02:23:35;;;;;;;0.20;0.10;;;;;;;18.07;96.54;100492.22;4985587;28;20104;-70
2023/09/12 02:26:01;;;;;;;0.60;0.30;;;;;;;18.07;96.60;100497.50;4989830;28;20059;-70
2023/09/12 02:28:26;;;;;;;0.15;0.00;;;;;;;18.02;97.29;100500.72;4986054;28;20023;-71
2023/09/12 02:30:52;;;;;;;0.40;0.10;;;;;;;18.02;97.76;100497.25;4983080;28;20421;-70
2023/09/12 02:33:17;;;;;;;0.10;0.00;;;;;;;18.00;97.83;100502.72;4987956;28;20046;-71
2023/09/12 02:35:42;;;;;;;0.47;0.10;;;;;;;17.95;98.34;100497.25;4977593;28;20043;-70
2023/09/12 02:38:08;;;;;;;0.20;0.10;;;;;;;17.93;98.50;100491.34;4982326;28;20026;-70
2023/09/12 02:40:33;;;;;;;0.10;0.03;;;;;;;17.89;99.26;100493.56;4987238;28;20030;-70
2023/09/12 02:42:59;;;;;;;0.00;0.00;;;;;;;17.87;100.00;100500.00;4986102;28;20037;-70
2023/09/12 02:45:24;;;;;;;0.50;0.03;;;;;;;17.84;100.00;100501.22;4985198;28;20038;-71
2023/09/12 02:47:50;;;;;;;0.10;0.00;;;;;;;17.86;100.00;100498.38;4988958;28;20076;-70
2023/09/12 02:50:15;;;;;;;0.08;0.00;;;;;;;17.87;100.00;100495.56;4984467;28;20038;-70
2023/09/12 02:52:40;;;;;;;0.10;0.00;;;;;;;17.90;100.00;100503.09;4981021;28;20392;-70
2023/09/12 02:55:06;;;;;;;1.17;0.10;;;;;;;17.89;99.96;100501.47;4988798;28;20057;-70
2023/09/12 02:57:32;;;;;;;0.00;0.00;;;;;;;17.90;99.91;100497.00;4986124;28;20061;-70
2023/09/12 02:59:57;;;;;;;0.00;0.00;;;;;;;17.90;100.00;100497.00;4986152;28;21562;-71
2023/09/12 03:02:23;;;;;;;0.10;0.10;;;;;;;17.88;100.00;100497.19;4987496;28;20034;-71
2023/09/12 03:04:48;;;;;;;0.55;0.10;;;;;;;17.84;100.00;100500.41;4985058;28;20047;-70
2023/09/12 03:07:13;;;;;;;0.00;0.00;;;;;;;17.81;100.00;100488.41;4987724;28;20085;-70
2023/09/12 03:09:39;;;;;;;0.20;0.10;;;;;;;17.76;100.00;100490.00;4981136;28;20062;-70
2023/09/12 03:12:05;;;;;;;0.25;0.00;;;;;;;17.71;100.00;100492.38;4983301;28;20383;-71
2023/09/12 03:14:30;;;;;;;0.00;0.00;;;;;;;17.67;100.00;100491.13;4989626;28;20072;-70
2023/09/12 03:16:56;;;;;;;0.65;0.10;;;;;;;17.63;100.00;100498.56;4989794;28;20495;-70
2023/09/12 03:19:22;;;;;;;0.10;0.10;;;;;;;17.57;100.00;100507.22;4988290;28;20037;-69
2023/09/12 03:21:47;;;;;;;0.05;0.00;;;;;;;17.53;100.00;100504.13;4989728;28;20062;-70
2023/09/12 03:24:13;;;;;;;0.63;0.45;;;;;;;17.52;100.00;100507.78;4991624;28;20447;-69
2023/09/12 03:26:38;;;;;;;0.30;0.20;;;;;;;17.50;100.00;100507.16;4991516;28;20031;-70
2023/09/12 03:29:04;;;;;;;0.10;0.10;;;;;;;17.48;100.00;100509.19;4990806;28;20038;-69
2023/09/12 03:31:30;;;;;;;0.32;0.00;;;;;;;17.46;100.00;100505.94;4990657;28;20060;-70
2023/09/12 03:33:55;;;;;;;0.10;0.10;;;;;;;17.44;100.00;100513.19;4989911;28;20117;-70
2023/09/12 03:36:21;;;;;;;0.45;0.10;;;;;;;17.45;100.00;100506.94;4989070;28;20041;-70
2023/09/12 03:38:46;;;;;;;0.35;0.10;;;;;;;17.45;100.00;100511.38;4991533;28;20030;-70
2023/09/12 03:41:11;;;;;;;0.10;0.10;;;;;;;17.42;100.00;100509.94;4988467;28;20026;-70
2023/09/12 03:43:37;;;;;;;0.10;0.00;;;;;;;17.40;100.00;100509.31;4989492;28;20049;-70
2023/09/12 03:46:03;;;;;;;0.52;0.00;;;;;;;17.40;100.00;100511.94;4990783;28;20396;-70
2023/09/12 03:48:31;;;;;;;0.00;0.00;;;;;;;17.37;100.00;100511.50;4988078;28;20377;-69
2023/09/12 03:50:57;;;;;;;0.10;0.10;;;;;;;17.34;100.00;100507.41;4986172;28;20089;-69
2023/09/12 03:53:22;;;;;;;0.00;0.00;;;;;;;17.38;100.00;100499.97;4989295;28;21433;-70
2023/09/12 03:55:48;;;;;;;0.10;0.00;;;;;;;17.43;100.00;100508.13;4987218;28;20038;-70
2023/09/12 03:58:13;;;;;;;0.65;0.08;;;;;;;17.44;100.00;100501.84;4988876;28;20019;-69
2023/09/12 04:00:39;;;;;;;0.00;0.00;;;;;;;17.46;100.00;100490.13;4987941;28;20026;-70
2023/09/12 04:03:04;;;;;;;0.70;0.32;;;;;;;17.48;100.00;100506.56;4980889;28;20093;-69
2023/09/12 04:05:32;;;;;;;0.20;0.20;;;;;;;17.54;100.00;100508.41;4984095;28;20054;-70
2023/09/12 04:07:57;;;;;;;0.05;0.03;;;;;;;17.58;99.80;100509.66;4989272;28;20037;-70
2023/09/12 04:10:23;;;;;;;0.05;0.00;;;;;;;17.56;99.95;100510.84;4988302;28;20027;-67
2023/09/12 04:12:48;;;;;;;0.10;0.00;;;;;;;17.49;99.87;100510.78;4988069;28;20030;-67
2023/09/12 04:15:14;;;;;;;0.40;0.03;;;;;;;17.48;100.00;100513.63;4985872;28;20133;-67
2023/09/12 04:17:39;;;;;;;0.38;0.10;;;;;;;17.43;100.00;100511.56;4990777;28;20022;-67
2023/09/12 04:20:05;;;;;;;0.10;0.00;;;;;;;17.35;100.00;100516.13;4983871;28;20535;-68
2023/09/12 04:22:31;;;;;;;0.25;0.20;;;;;;;17.29;100.00;100520.31;4985273;28;20121;-70
2023/09/12 04:24:56;;;;;;;0.10;0.00;;;;;;;17.24;100.00;100522.69;4993291;28;20064;-69
2023/09/12 04:27:22;;;;;;;0.13;0.05;;;;;;;17.22;100.00;100519.44;4988652;28;20034;-70
2023/09/12 04:29:47;;;;;;;0.45;0.15;;;;;;;17.28;100.00;100512.63;4988513;28;20042;-70
2023/09/12 04:32:12;;;;;;;0.20;0.17;;;;;;;17.25;100.00;100514.63;4987872;28;20042;-70
2023/09/12 04:34:38;;;;;;;0.20;0.08;;;;;;;17.24;100.00;100512.97;4987112;28;20644;-70
2023/09/12 04:37:05;;;;;;;0.10;0.00;;;;;;;17.22;100.00;100514.19;4988980;28;20027;-69
2023/09/12 04:39:31;;;;;;;0.38;0.20;;;;;;;17.22;100.00;100519.44;4988716;28;20527;-70
2023/09/12 04:41:56;;;;;;;0.17;0.10;;;;;;;17.23;100.00;100518.44;4989863;28;20023;-69
2023/09/12 04:44:22;;;;;;;0.20;0.20;;;;;;;17.24;100.00;100522.69;4988246;28;20448;-69
2023/09/12 04:46:48;;;;;;;0.10;0.10;;;;;;;17.26;100.00;100520.69;4988456;28;20073;-70
2023/09/12 04:49:13;;;;;;;0.10;0.00;;;;;;;17.24;100.00;100520.06;4988148;28;20041;-69
2023/09/12 04:51:39;;;;;;;0.10;0.00;;;;;;;17.22;100.00;100529.97;4991650;28;20025;-69
2023/09/12 04:54:05;;;;;;;0.75;0.20;;;;;;;17.20;100.00;100526.72;5000403;28;20483;-69
2023/09/12 04:56:31;;;;;;;0.63;0.10;;;;;;;17.22;100.00;100520.25;4989751;28;20044;-69
2023/09/12 04:58:56;;;;;;;0.17;0.00;;;;;;;17.23;100.00;100523.72;4989346;28;20384;-69
2023/09/12 05:01:22;;;;;;;0.45;0.10;;;;;;;17.24;100.00;100525.34;4982706;28;20022;-69
2023/09/12 05:03:47;;;;;;;0.10;0.03;;;;;;;17.22;100.00;100522.06;4986362;28;20031;-69
2023/09/12 05:06:13;;;;;;;0.08;0.05;;;;;;;17.23;100.00;100518.44;4980199;28;20034;-69
2023/09/12 05:08:39;;;;;;;0.50;0.10;;;;;;;17.26;100.00;100520.69;4988534;28;20408;-69
2023/09/12 05:11:04;;;;;;;0.10;0.00;;;;;;;17.27;100.00;100529.41;4989709;28;20055;-69
2023/09/12 05:13:30;;;;;;;0.20;0.10;;;;;;;17.24;100.00;100527.97;4988972;28;20133;-69
2023/09/12 05:15:56;;;;;;;0.00;0.00;;;;;;;17.24;100.00;100538.50;4984784;28;20065;-69
2023/09/12 05:18:22;;;;;;;0.20;0.00;;;;;;;17.24;100.00;100527.97;4989015;28;20109;-69
2023/09/12 05:20:47;;;;;;;0.85;0.10;;;;;;;17.29;100.00;100536.13;4986385;28;20460;-69
2023/09/12 05:23:13;;;;;;;0.13;0.10;;;;;;;17.34;100.00;100532.94;4984071;28;20455;-69
2023/09/12 05:25:38;;;;;;;0.00;0.00;;;;;;;17.33;100.00;100533.94;4987638;28;20030;-69
2023/09/12 05:28:04;;;;;;;0.05;0.05;;;;;;;17.33;100.00;100550.56;4989430;28;20026;-69
2023/09/12 05:30:30;;;;;;;0.32;0.00;;;;;;;17.38;100.00;100542.09;4986491;28;20077;-69
2023/09/12 05:32:56;;;;;;;0.20;0.00;;;;;;;17.39;100.00;100531.38;4988107;28;20038;-69
2023/09/12 05:35:21;;;;;;;0.10;0.00;;;;;;;17.40;100.00;100533.00;4982461;28;20023;-69
2023/09/12 05:37:47;;;;;;;0.43;0.17;;;;;;;17.42;100.00;100530.19;4983582;28;20491;-69
2023/09/12 05:40:13;;;;;;;0.20;0.05;;;;;;;17.43;100.00;100535.28;4990523;28;20090;-69
2023/09/12 05:42:38;;;;;;;0.15;0.10;;;;;;;17.45;100.00;100538.53;4989368;28;20034;-69
2023/09/12 05:45:04;;;;;;;0.25;0.25;;;;;;;17.44;100.00;100536.91;4987430;28;20038;-68
2023/09/12 05:47:30;;;;;;;0.00;0.00;;;;;;;17.42;100.00;100541.53;4988610;28;20056;-69
2023/09/12 05:49:55;;;;;;;0.20;0.00;;;;;;;17.45;100.00;100540.34;4983533;28;20038;-69
2023/09/12 05:52:21;;;;;;;0.13;0.10;;;;;;;17.49;100.00;100539.75;4982756;28;20041;-69
2023/09/12 05:54:46;;;;;;;0.08;0.08;;;;;;;17.58;100.00;100537.81;4988099;28;20022;-69
2023/09/12 05:57:12;;;;;;;0.17;0.15;;;;;;;17.66;100.00;100548.28;4989435;28;20089;-69
2023/09/12 05:59:39;;;;;;;0.40;0.20;;;;;;;17.69;100.00;100539.19;4983903;28;20110;-69
2023/09/12 06:02:06;;;;;;;0.10;0.00;;;;;;;17.73;100.00;100541.25;4987144;28;20088;-69
2023/09/12 06:04:32;;;;;;;0.17;0.10;;;;;;;17.80;100.00;100549.22;4986351;28;20556;-69
2023/09/12 06:06:57;;;;;;;0.20;0.00;;;;;;;17.81;100.00;100550.84;4977812;28;20676;-69
2023/09/12 06:09:23;;;;;;;0.77;0.17;;;;;;;17.77;100.00;100547.78;4983632;28;20030;-70
2023/09/12 06:11:48;;;;;;;0.00;0.00;;;;;;;17.69;100.00;100552.34;4981312;28;20554;-69
2023/09/12 06:14:14;;;;;;;0.00;0.00;;;;;;;17.69;100.00;100547.91;4983448;28;20030;-70
2023/09/12 06:16:39;;;;;;;0.10;0.10;;;;;;;17.74;100.00;100550.78;4980360;28;20124;-69
2023/09/12 06:19:05;;;;;;;0.40;0.15;;;;;;;17.79;100.00;100553.66;4984057;28;20048;-71
2023/09/12 06:21:30;;;;;;;0.00;0.00;;;;;;;17.83;100.00;100546.22;4986499;28;20038;-69
2023/09/12 06:24:13;;;;;;;0.20;0.05;;;;;;;17.89;100.00;100548.09;4987732;28;20407;-69
2023/09/12 06:26:39;;;;;;;0.00;0.00;;;;;;;18.02;100.00;100542.91;4981645;28;20360;-70
2023/09/12 06:29:05;;;;;;;0.20;0.10;;;;;;;18.16;99.43;100544.63;4982425;28;20046;-70
2023/09/12 06:31:30;;;;;;;0.00;0.00;;;;;;;18.30;99.16;100542.91;4989480;28;20026;-69
2023/09/12 06:33:56;;;;;;;0.10;0.03;;;;;;;18.43;97.37;100553.53;4986819;28;20041;-69
2023/09/12 06:36:23;;;;;;;0.45;0.25;;;;;;;18.47;97.30;100548.69;4985552;28;20480;-69
2023/09/12 06:38:49;;;;;;;0.77;0.20;;;;;;;18.51;97.34;100545.47;4987579;28;20035;-70
2023/09/12 06:41:15;;;;;;;0.10;0.00;;;;;;;18.67;97.37;100552.28;4983853;28;20036;-65
2023/09/12 06:43:40;;;;;;;0.30;0.10;;;;;;;18.78;95.89;100554.38;4986615;28;20121;-65
2023/09/12 06:46:06;;;;;;;0.13;0.00;;;;;;;18.86;95.42;100562.13;4979258;28;20030;-65
2023/09/12 06:48:31;;;;;;;0.10;0.00;;;;;;;18.95;95.23;100554.03;4981543;28;20496;-65
2023/09/12 06:50:57;;;;;;;0.10;0.10;;;;;;;19.02;95.07;100554.88;4985807;28;20050;-65
2023/09/12 06:53:22;;;;;;;1.33;0.20;;;;;;;19.04;94.68;100552.84;4987242;28;20037;-65
2023/09/12 06:55:47;;;;;;;0.30;0.10;;;;;;;19.09;93.99;100561.81;4984036;28;20121;-65
2023/09/12 06:58:13;;;;;;;0.10;0.00;;;;;;;19.16;93.85;100554.72;4985767;28;20080;-63
2023/09/12 07:00:38;;;;;;;0.68;0.17;;;;;;;19.29;93.52;100563.72;4989181;28;20040;-63
2023/09/12 07:03:04;;;;;;;0.30;0.05;;;;;;;19.42;93.76;100563.72;4986952;28;20679;-63
2023/09/12 07:05:30;;;;;;;0.40;0.00;;;;;;;19.59;92.57;100577.41;4987787;28;20498;-63
2023/09/12 07:07:55;;;;;;;0.30;0.08;;;;;;;19.74;92.47;100567.50;4990759;28;20173;-63
2023/09/12 07:10:21;;;;;;;0.10;0.00;;;;;;;19.84;91.34;100575.84;4982290;28;20035;-63
2023/09/12 07:12:46;;;;;;;0.03;0.00;;;;;;;19.98;91.66;100577.47;4988508;28;20033;-63
2023/09/12 07:15:12;;;;;;;0.00;0.00;;;;;;;20.10;90.33;100575.84;4986390;28;20058;-63
2023/09/12 07:17:38;;;;;;;0.30;0.30;;;;;;;20.20;89.83;100572.78;4988440;28;20026;-63
2023/09/12 07:20:04;;;;;;;0.13;0.13;;;;;;;20.20;89.06;100580.72;4989615;28;20030;-63
2023/09/12 07:22:30;;;;;;;0.45;0.00;;;;;;;20.24;89.29;100571.34;4990535;28;20053;-63
2023/09/12 07:24:55;;;;;;;0.40;0.00;;;;;;;20.39;89.10;100579.09;4994431;28;20064;-63
2023/09/12 07:27:21;;;;;;;0.20;0.10;;;;;;;20.48;87.84;100578.66;4986429;28;20026;-63
2023/09/12 07:29:46;;;;;;;0.28;0.00;;;;;;;20.66;88.49;100579.88;4985710;28;20121;-64
2023/09/12 07:32:11;;;;;;;0.05;0.00;;;;;;;20.82;88.21;100579.38;4989721;28;20038;-64
2023/09/12 07:34:37;;;;;;;0.10;0.08;;;;;;;20.94;86.62;100580.38;4985761;28;20034;-63
2023/09/12 07:37:03;;;;;;;0.10;0.00;;;;;;;21.01;85.97;100585.66;4989360;28;20034;-63
2023/09/12 07:39:29;;;;;;;0.20;0.10;;;;;;;21.09;86.36;100585.41;4985707;28;20113;-64
2023/09/12 07:41:54;;;;;;;0.20;0.10;;;;;;;21.17;85.40;100582.53;4985849;28;20029;-64
2023/09/12 07:44:20;;;;;;;0.45;0.30;;;;;;;21.24;85.79;100575.41;4989026;28;20045;-63
2023/09/12 07:46:46;;;;;;;0.30;0.20;;;;;;;21.30;84.66;100577.19;4988975;28;20042;-64
2023/09/12 07:49:11;;;;;;;0.95;0.10;;;;;;;21.22;84.23;100574.00;4987326;28;20034;-64
2023/09/12 07:51:37;;;;;;;0.85;0.10;;;;;;;21.23;85.25;100573.78;4987932;28;20062;-63
2023/09/12 07:54:03;;;;;;;0.20;0.00;;;;;;;21.42;85.17;100570.19;4983840;28;20036;-64
2023/09/12 07:56:28;;;;;;;0.00;0.00;;;;;;;21.60;83.45;100580.09;4990732;28;20170;-64
2023/09/12 07:58:55;;;;;;;0.15;0.10;;;;;;;21.66;83.54;100586.38;4997514;28;20137;-64
2023/09/12 08:01:21;;;;;;;0.00;0.00;;;;;;;21.79;84.21;100583.59;4988940;28;20040;-64
2023/09/12 08:03:46;;;;;;;0.13;0.10;;;;;;;21.98;82.93;100581.84;4992730;28;20391;-64
2023/09/12 08:06:13;;;;;;;0.17;0.00;;;;;;;22.02;82.18;100575.09;4991781;28;20034;-64
2023/09/12 08:08:38;;;;;;;0.75;0.30;;;;;;;22.07;81.01;100581.38;4988668;28;20109;-64
2023/09/12 08:11:04;;;;;;;0.10;0.00;;;;;;;22.20;81.76;100582.31;4987263;28;20113;-64
2023/09/12 08:13:30;;;;;;;0.15;0.10;;;;;;;22.36;80.22;100579.09;4986642;28;20400;-64
2023/09/12 08:15:56;;;;;;;0.60;0.10;;;;;;;22.43;79.65;100585.13;4991580;28;20030;-64
2023/09/12 08:18:27;;;;;;;0.38;0.00;;;;;;;22.48;79.99;100580.00;4990280;28;20026;-64
2023/09/12 08:20:52;;;;;;;0.03;0.00;;;;;;;22.53;80.37;100590.75;4988868;28;20029;-64
2023/09/12 08:23:18;;;;;;;0.10;0.00;;;;;;;22.56;79.92;100587.66;4989359;28;20030;-64
2023/09/12 08:25:43;;;;;;;0.10;0.10;;;;;;;22.60;79.64;100588.84;4986004;28;20476;-64
2023/09/12 08:28:09;;;;;;;0.15;0.03;;;;;;;22.65;80.00;100588.19;4989603;28;20125;-64
2023/09/12 08:30:34;;;;;;;0.90;0.00;;;;;;;22.70;81.04;100588.31;4989144;28;20080;-64
2023/09/12 08:33:03;;;;;;;0.20;0.10;;;;;;;22.73;80.84;100586.03;4989603;28;20113;-64
2023/09/12 08:35:28;;;;;;;0.55;0.10;;;;;;;22.90;80.19;100585.47;4988890;28;20064;-65
2023/09/12 08:37:54;;;;;;;0.38;0.10;;;;;;;23.04;79.16;100585.13;4989903;28;20050;-64
2023/09/12 08:40:19;;;;;;;0.38;0.05;;;;;;;23.08;77.92;100596.91;4988458;28;20030;-64
2023/09/12 08:42:45;;;;;;;0.50;0.10;;;;;;;23.17;78.75;100584.09;4991024;28;20038;-64
2023/09/12 08:45:18;;;;;;;0.10;0.00;;;;;;;23.13;77.58;100585.63;4989967;28;20033;-64
2023/09/12 08:47:45;;;;;;;0.00;0.00;;;;;;;23.23;78.40;100587.72;4988129;28;20061;-64
2023/09/12 08:50:13;;;;;;;0.60;0.10;;;;;;;23.31;77.86;100585.56;4990349;28;20035;-64
2023/09/12 08:52:40;;;;;;;0.08;0.00;;;;;;;23.37;77.69;100584.66;4991037;28;20026;-65
2023/09/12 08:55:06;;;;;;;0.10;0.00;;;;;;;23.39;77.97;100587.09;4991821;28;20026;-65
2023/09/12 08:57:34;;;;;;;0.77;0.10;;;;;;;23.33;77.43;100582.69;4992132;28;20072;-64
2023/09/12 09:00:08;;;;;;;0.00;0.00;;;;;;;23.43;78.58;100581.13;4989704;28;20034;-65
2023/09/12 09:02:38;;;;;;;0.98;0.10;;;;;;;23.58;76.29;100586.06;5002857;28;20030;-65
2023/09/12 09:05:05;;;;;;;0.60;0.00;;;;;;;23.48;77.07;100586.56;4991656;28;20046;-65
2023/09/12 09:07:41;;;;;;;0.10;0.00;;;;;;;23.45;77.43;100576.38;5005386;28;20049;-65
2023/09/12 09:10:13;;;;;;;0.10;0.10;;;;;;;23.42;78.92;100579.50;4990670;28;20372;-65
2023/09/12 09:12:40;;;;;;;0.10;0.10;;;;;;;23.46;79.02;100578.00;4990749;28;20023;-65
2023/09/12 09:15:28;;;;;;;0.55;0.20;;;;;;;23.52;78.02;100584.25;4990744;28;20034;-65
2023/09/12 09:17:55;;;;;;;0.43;0.00;;;;;;;23.54;79.45;100584.06;4991649;28;20026;-65
2023/09/12 09:20:29;;;;;;;0.00;0.00;;;;;;;23.53;80.99;100593.06;4990902;28;20395;-65
2023/09/12 09:23:04;;;;;;;0.43;0.10;;;;;;;23.47;79.83;100584.94;4985337;28;20379;-65
2023/09/12 09:25:31;;;;;;;0.00;0.00;;;;;;;23.44;80.65;100585.41;4990651;28;20157;-65
2023/09/12 09:27:56;;;;;;;0.10;0.00;;;;;;;23.44;80.73;100582.72;4991366;28;20026;-65
2023/09/12 09:30:42;;;;;;;0.20;0.00;;;;;;;23.50;77.54;100579.19;4988773;28;20057;-65
2023/09/12 09:33:08;;;;;;;0.10;0.00;;;;;;;23.53;77.81;100583.25;4989856;28;20038;-65
2023/09/12 09:35:34;;;;;;;0.10;0.00;;;;;;;23.59;76.51;100586.88;4990305;28;20522;-65
2023/09/12 09:37:59;;;;;;;0.00;0.00;;;;;;;23.67;76.93;100595.31;4994508;28;20073;-65
2023/09/12 09:40:25;;;;;;;0.55;0.00;;;;;;;23.79;77.37;100590.84;4986072;28;20049;-65
2023/09/12 09:42:55;;;;;;;0.10;0.00;;;;;;;23.78;76.27;100585.75;4991024;28;20038;-65
2023/09/12 09:45:21;;;;;;;0.30;0.00;;;;;;;23.83;76.34;100583.22;4990768;28;20030;-65
2023/09/12 09:47:48;;;;;;;0.10;0.00;;;;;;;23.84;77.12;100590.16;4991232;28;20031;-65
2023/09/12 09:50:14;;;;;;;0.20;0.00;;;;;;;23.83;77.81;100588.53;4990692;28;20048;-65
2023/09/12 09:52:40;;;;;;;0.52;0.00;;;;;;;23.92;76.46;100583.69;4989329;28;20034;-65
2023/09/12 09:55:14;;;;;;;0.10;0.00;;;;;;;24.14;75.74;100580.22;4990654;28;20534;-65
2023/09/12 09:57:39;;;;;;;0.30;0.00;;;;;;;24.21;75.57;100587.28;4991451;28;20031;-65
2023/09/12 10:00:08;;;;;;;0.17;0.00;;;;;;;24.16;75.92;100588.78;4984119;28;20499;-65
2023/09/12 10:02:38;;;;;;;0.10;0.00;;;;;;;24.13;75.20;100585.78;4990489;28;20042;-65
2023/09/12 10:05:05;;;;;;;0.00;0.00;;;;;;;24.15;73.22;100581.84;4990972;28;20034;-65
2023/09/12 10:07:38;;;;;;;0.13;0.10;;;;;;;24.07;73.74;100581.41;4984135;28;20030;-65
2023/09/12 10:10:04;;;;;;;0.30;0.00;;;;;;;23.97;74.04;100584.63;4990977;28;20109;-65
2023/09/12 10:12:47;;;;;;;0.17;0.10;;;;;;;23.89;72.61;100582.28;4989920;28;20444;-65
2023/09/12 10:15:15;;;;;;;0.10;0.10;;;;;;;24.16;69.09;100580.00;4990660;28;20041;-65
2023/09/12 10:17:42;;;;;;;0.20;0.10;;;;;;;24.28;70.85;100582.69;4988752;28;20029;-65
2023/09/12 10:20:15;;;;;;;0.10;0.00;;;;;;;24.24;71.79;100576.19;4990372;28;20447;-65
2023/09/12 10:22:51;;;;;;;0.00;0.00;;;;;;;24.36;71.27;100574.38;4989877;28;20046;-65
2023/09/12 10:25:17;;;;;;;0.10;0.00;;;;;;;24.44;71.13;100584.66;4989651;28;20401;-65
2023/09/12 10:27:42;;;;;;;0.20;0.00;;;;;;;24.47;70.93;100578.88;4990814;28;20030;-65
2023/09/12 10:30:09;;;;;;;0.00;0.00;;;;;;;24.42;71.78;100581.44;4989525;28;20046;-65
2023/09/12 10:32:35;;;;;;;0.00;0.00;;;;;;;24.33;72.20;100578.31;4989796;28;20037;-65
2023/09/12 10:35:03;;;;;;;0.00;0.00;;;;;;;24.30;72.10;100583.28;4990801;28;20138;-65
2023/09/12 10:37:29;;;;;;;0.00;0.00;;;;;;;24.23;71.53;100582.53;4988952;28;20047;-65
2023/09/12 10:39:56;;;;;;;0.15;0.00;;;;;;;24.25;72.09;100581.31;4990786;28;20395;-65
2023/09/12 10:42:23;;;;;;;0.00;0.00;;;;;;;24.31;71.27;100580.38;4988362;28;20027;-65
2023/09/12 10:44:51;;;;;;;0.10;0.05;;;;;;;24.29;71.55;100576.34;4989629;28;20035;-65
2023/09/12 10:47:18;;;;;;;0.03;0.00;;;;;;;24.33;71.39;100578.31;4990043;28;20034;-65
2023/09/12 10:49:44;;;;;;;0.00;0.00;;;;;;;24.36;71.11;100577.03;4988843;28;20058;-65
2023/09/12 10:52:09;;;;;;;0.10;0.10;;;;;;;24.53;72.63;100582.47;4983370;28;20391;-65
2023/09/12 10:54:37;;;;;;;0.10;0.00;;;;;;;24.62;72.60;100583.72;4982965;28;20037;-65
2023/09/12 10:57:13;;;;;;;0.00;0.00;;;;;;;24.65;73.39;100584.06;4986749;28;20435;-65
2023/09/12 11:00:01;;;;;;;0.10;0.00;;;;;;;24.70;72.44;100581.50;4988885;28;20026;-65
2023/09/12 11:02:30;;;;;;;0.00;0.00;;;;;;;24.69;71.31;100585.19;4988967;28;20029;-65
2023/09/12 11:04:57;;;;;;;0.10;0.00;;;;;;;24.79;71.72;100577.44;4986537;28;20488;-66
2023/09/12 11:07:38;;;;;;;0.08;0.00;;;;;;;24.84;69.30;100579.38;4985395;28;20034;-65
2023/09/12 11:10:16;;;;;;;0.13;0.00;;;;;;;24.81;71.23;100588.66;4982890;28;20035;-65
2023/09/12 11:12:43;;;;;;;0.55;0.10;;;;;;;24.76;71.97;100593.88;4989145;28;20379;-65
2023/09/12 11:15:10;;;;;;;0.08;0.00;;;;;;;24.80;72.20;100584.38;4989691;28;20380;-65
2023/09/12 11:17:43;;;;;;;0.20;0.00;;;;;;;24.77;69.96;100584.84;4989878;28;20023;-65
2023/09/12 11:20:12;;;;;;;0.00;0.00;;;;;;;24.78;69.99;100575.81;4985840;28;20038;-65